Time;durP1;ratioP1;P1;durP2;ratioP2;P2;SDS_P1;SDS_P2;PMS_P1;PMS_P2;Temp;Humidity;BMP_temperature;BMP_pressure;BME280_temperature;BME280_humidity;BME280_pressure;Samples;Min_cycle;Max_cycle;Signal;HPM_P1;HPM_P2
2022/02/23 00:00:38;;;;;;;;;5.25;2.25;;;;;;;;5045354;28;11086;-83
2022/02/23 00:03:06;;;;;;;;;2.25;0.75;;;;;;;;5042038;28;11275;-82
2022/02/23 00:05:34;;;;;;;;;2.25;2.25;;;;;;;;5039070;28;11327;-83
2022/02/23 00:08:01;;;;;;;;;2.00;2.00;;;;;;;;5041938;28;11318;-83
2022/02/23 00:10:29;;;;;;;;;2.00;2.00;;;;;;;;5042646;28;11508;-83
2022/02/23 00:12:56;;;;;;;;;4.00;3.00;;;;;;;;5043537;28;11539;-84
2022/02/23 00:15:24;;;;;;;;;1.25;1.25;;;;;;;;5041981;28;11471;-82
2022/02/23 00:17:55;;;;;;;;;2.75;2.75;;;;;;;;5042801;28;11481;-82
2022/02/23 00:20:23;;;;;;;;;3.25;2.00;;;;;;;;5042007;28;11483;-82
2022/02/23 00:22:50;;;;;;;;;1.75;1.75;;;;;;;;5043212;28;11568;-81
2022/02/23 00:25:18;;;;;;;;;2.00;2.00;;;;;;;;5041876;28;11653;-82
2022/02/23 00:27:45;;;;;;;;;5.00;3.00;;;;;;;;5042134;28;11434;-81
2022/02/23 00:30:12;;;;;;;;;2.00;2.00;;;;;;;;5045810;28;11581;-82
2022/02/23 00:32:40;;;;;;;;;4.00;4.00;;;;;;;;5041722;28;11501;-82
2022/02/23 00:35:09;;;;;;;;;7.50;3.00;;;;;;;;5041118;28;11544;-84
2022/02/23 00:37:36;;;;;;;;;6.75;4.00;;;;;;;;5043988;28;11452;-83
2022/02/23 00:40:04;;;;;;;;;0.75;0.75;;;;;;;;5044134;28;11457;-81
2022/02/23 00:42:31;;;;;;;;;1.75;1.75;;;;;;;;5042761;28;11596;-84
2022/02/23 00:44:59;;;;;;;;;2.00;2.00;;;;;;;;5046791;28;11603;-83
2022/02/23 00:47:26;;;;;;;;;3.50;3.50;;;;;;;;5042070;28;11585;-83
2022/02/23 00:49:53;;;;;;;;;1.75;1.75;;;;;;;;5049707;28;11450;-81
2022/02/23 00:52:22;;;;;;;;;2.00;2.00;;;;;;;;5041213;28;11515;-84
2022/02/23 00:54:49;;;;;;;;;2.00;2.00;;;;;;;;5041626;28;11552;-83
2022/02/23 00:57:17;;;;;;;;;4.00;1.75;;;;;;;;5045401;28;11481;-84
2022/02/23 00:59:45;;;;;;;;;4.00;4.00;;;;;;;;5041881;28;11552;-83
2022/02/23 01:02:12;;;;;;;;;5.00;4.25;;;;;;;;5045054;28;11412;-83
2022/02/23 01:04:39;;;;;;;;;3.50;3.50;;;;;;;;5042595;28;11481;-84
2022/02/23 01:07:07;;;;;;;;;5.00;5.00;;;;;;;;5040956;28;11458;-83
2022/02/23 01:09:35;;;;;;;;;7.00;4.75;;;;;;;;5039864;28;11509;-81
2022/02/23 01:12:03;;;;;;;;;6.00;4.00;;;;;;;;5049817;28;11535;-84
2022/02/23 01:14:30;;;;;;;;;1.50;1.50;;;;;;;;5045851;28;11557;-84
2022/02/23 01:16:57;;;;;;;;;4.00;4.00;;;;;;;;5042782;28;11585;-83
2022/02/23 01:19:25;;;;;;;;;7.00;5.25;;;;;;;;5048727;28;11501;-82
2022/02/23 01:21:52;;;;;;;;;4.00;4.00;;;;;;;;5046093;28;11561;-82
2022/02/23 01:24:19;;;;;;;;;1.00;1.00;;;;;;;;5049409;28;11549;-84
2022/02/23 01:26:48;;;;;;;;;2.50;2.50;;;;;;;;5046533;28;11504;-83
2022/02/23 01:29:15;;;;;;;;;4.00;4.00;;;;;;;;5051476;28;11545;-79
2022/02/23 01:31:43;;;;;;;;;2.00;2.00;;;;;;;;5042084;28;11499;-83
2022/02/23 01:34:10;;;;;;;;;2.50;2.00;;;;;;;;5046538;28;11649;-84
2022/02/23 01:36:37;;;;;;;;;2.75;2.00;;;;;;;;5046701;28;11552;-83
2022/02/23 01:39:05;;;;;;;;;3.50;1.25;;;;;;;;5047423;28;11564;-83
2022/02/23 01:41:33;;;;;;;;;4.25;3.00;;;;;;;;5043461;28;11560;-83
2022/02/23 01:44:01;;;;;;;;;2.00;2.00;;;;;;;;5048201;28;11523;-84
2022/02/23 01:46:30;;;;;;;;;6.50;5.25;;;;;;;;5053300;28;12360;-84
2022/02/23 01:48:57;;;;;;;;;5.25;3.75;;;;;;;;5044748;28;11589;-83
2022/02/23 01:51:24;;;;;;;;;5.00;3.00;;;;;;;;5054622;28;11522;-83
2022/02/23 01:53:52;;;;;;;;;8.00;5.25;;;;;;;;5046863;28;11514;-82
2022/02/23 01:56:19;;;;;;;;;1.75;1.00;;;;;;;;5045080;28;11665;-81
2022/02/23 01:58:47;;;;;;;;;1.00;1.00;;;;;;;;5049037;28;11590;-82
2022/02/23 02:01:16;;;;;;;;;4.75;2.00;;;;;;;;5042885;28;11608;-82
2022/02/23 02:03:43;;;;;;;;;6.00;4.25;;;;;;;;5053128;28;11540;-82
2022/02/23 02:06:11;;;;;;;;;5.00;4.00;;;;;;;;5042489;28;11614;-82
2022/02/23 02:08:38;;;;;;;;;4.75;3.00;;;;;;;;5049629;28;11655;-83
2022/02/23 02:11:05;;;;;;;;;4.00;4.00;;;;;;;;5045958;28;12244;-83
2022/02/23 02:13:33;;;;;;;;;3.00;2.00;;;;;;;;5050983;28;11569;-82
2022/02/23 02:16:00;;;;;;;;;2.00;2.00;;;;;;;;5044768;28;11523;-84
2022/02/23 02:18:29;;;;;;;;;2.00;2.00;;;;;;;;5046611;28;11560;-83
2022/02/23 02:20:56;;;;;;;;;1.75;1.75;;;;;;;;5048006;28;11574;-83
2022/02/23 02:23:25;;;;;;;;;4.00;3.00;;;;;;;;5043497;28;12178;-83
2022/02/23 02:25:52;;;;;;;;;2.00;2.00;;;;;;;;5046406;28;11559;-83
2022/02/23 02:28:20;;;;;;;;;6.50;4.00;;;;;;;;5041779;28;11540;-84
2022/02/23 02:30:47;;;;;;;;;1.00;1.00;;;;;;;;5041174;28;11491;-84
2022/02/23 02:33:14;;;;;;;;;1.00;1.00;;;;;;;;5042529;28;11553;-83
2022/02/23 02:35:42;;;;;;;;;4.75;3.50;;;;;;;;5049385;28;11518;-83
2022/02/23 02:38:10;;;;;;;;;2.00;2.00;;;;;;;;5043989;28;11530;-83
2022/02/23 02:40:38;;;;;;;;;3.25;3.25;;;;;;;;5049198;28;11561;-82
2022/02/23 02:43:08;;;;;;;;;4.25;4.25;;;;;;;;5040307;28;11511;-83
2022/02/23 02:45:36;;;;;;;;;2.00;2.00;;;;;;;;5041655;28;11665;-84
2022/02/23 02:48:03;;;;;;;;;3.00;2.00;;;;;;;;5043613;28;11548;-84
2022/02/23 02:50:31;;;;;;;;;3.00;3.00;;;;;;;;5044455;28;11550;-84
2022/02/23 02:52:59;;;;;;;;;4.25;4.25;;;;;;;;5042227;28;11655;-84
2022/02/23 02:55:26;;;;;;;;;8.00;4.00;;;;;;;;5044647;28;11607;-83
2022/02/23 02:57:55;;;;;;;;;4.00;4.00;;;;;;;;5076793;28;11521;-83
2022/02/23 03:00:24;;;;;;;;;2.00;2.00;;;;;;;;5045814;28;11542;-83
2022/02/23 03:02:51;;;;;;;;;2.50;2.50;;;;;;;;5049362;28;11653;-83
2022/02/23 03:05:19;;;;;;;;;4.75;1.00;;;;;;;;5040986;28;11522;-83
2022/02/23 03:07:47;;;;;;;;;1.50;1.50;;;;;;;;5043905;28;11529;-84
2022/02/23 03:10:14;;;;;;;;;2.00;2.00;;;;;;;;5043015;28;11684;-83
2022/02/23 03:12:41;;;;;;;;;1.75;1.75;;;;;;;;5045135;28;11625;-83
2022/02/23 03:15:11;;;;;;;;;2.00;2.00;;;;;;;;5050733;28;11545;-81
2022/02/23 03:17:38;;;;;;;;;4.00;4.00;;;;;;;;5043920;28;11603;-84
2022/02/23 03:20:07;;;;;;;;;2.50;2.50;;;;;;;;5041706;28;11550;-82
2022/02/23 03:22:35;;;;;;;;;4.00;4.00;;;;;;;;5040357;28;11553;-84
2022/02/23 03:25:02;;;;;;;;;7.50;3.75;;;;;;;;5041972;28;11530;-84
2022/02/23 03:27:29;;;;;;;;;4.00;4.00;;;;;;;;5042729;28;11540;-85
2022/02/23 03:29:56;;;;;;;;;4.50;4.50;;;;;;;;5044574;28;11548;-84
2022/02/23 03:32:25;;;;;;;;;0.75;0.75;;;;;;;;5051380;28;11462;-84
2022/02/23 03:34:52;;;;;;;;;5.00;3.50;;;;;;;;5045474;28;11508;-84
2022/02/23 03:37:21;;;;;;;;;2.00;2.00;;;;;;;;5040910;28;11610;-82
2022/02/23 03:39:49;;;;;;;;;3.50;3.50;;;;;;;;5044361;28;12499;-83
2022/02/23 03:42:16;;;;;;;;;3.50;3.50;;;;;;;;5046587;28;11541;-83
2022/02/23 03:44:44;;;;;;;;;3.00;3.00;;;;;;;;5044662;28;11709;-83
2022/02/23 03:47:11;;;;;;;;;1.75;1.75;;;;;;;;5044056;28;11504;-82
2022/02/23 03:49:40;;;;;;;;;4.25;4.25;;;;;;;;5043658;28;11598;-83
2022/02/23 03:52:08;;;;;;;;;9.00;4.75;;;;;;;;5045370;28;11581;-83
2022/02/23 03:54:35;;;;;;;;;4.50;2.00;;;;;;;;5040729;28;11709;-82
2022/02/23 03:57:03;;;;;;;;;3.50;3.50;;;;;;;;5045237;28;11533;-83
2022/02/23 03:59:31;;;;;;;;;1.50;1.50;;;;;;;;5042533;28;11549;-83
2022/02/23 04:01:58;;;;;;;;;4.25;1.50;;;;;;;;5048688;28;11601;-81
2022/02/23 04:04:26;;;;;;;;;5.75;4.00;;;;;;;;5076851;28;10985;-81
2022/02/23 04:06:54;;;;;;;;;2.00;2.00;;;;;;;;5040205;28;11578;-83
2022/02/23 04:09:22;;;;;;;;;2.00;2.00;;;;;;;;5041778;28;11606;-81
2022/02/23 04:11:49;;;;;;;;;2.50;2.50;;;;;;;;5040948;28;11572;-82
2022/02/23 04:14:16;;;;;;;;;1.00;1.00;;;;;;;;5043801;28;11511;-83
2022/02/23 04:16:44;;;;;;;;;6.00;6.00;;;;;;;;5040430;28;11503;-83
2022/02/23 04:19:11;;;;;;;;;6.75;2.50;;;;;;;;5042010;28;11656;-83
2022/02/23 04:21:38;;;;;;;;;4.00;4.00;;;;;;;;5043042;28;12284;-83
2022/02/23 04:24:08;;;;;;;;;4.00;1.50;;;;;;;;5039309;28;11606;-82
2022/02/23 04:26:35;;;;;;;;;3.50;2.50;;;;;;;;5044953;28;12388;-83
2022/02/23 04:29:02;;;;;;;;;1.25;0.25;;;;;;;;5046174;28;11563;-82
2022/02/23 04:31:31;;;;;;;;;1.25;1.25;;;;;;;;5041460;28;11589;-83
2022/02/23 04:33:59;;;;;;;;;2.00;2.00;;;;;;;;5041743;28;11537;-81
2022/02/23 04:36:26;;;;;;;;;2.00;1.50;;;;;;;;5049069;28;11583;-83
2022/02/23 04:38:54;;;;;;;;;1.00;1.00;;;;;;;;5042418;28;11720;-83
2022/02/23 04:41:23;;;;;;;;;3.00;2.00;;;;;;;;5041443;28;11564;-83
2022/02/23 04:43:51;;;;;;;;;5.00;4.00;;;;;;;;5043066;28;12317;-84
2022/02/23 04:46:18;;;;;;;;;2.50;2.50;;;;;;;;5047586;28;12458;-82
2022/02/23 04:48:48;;;;;;;;;4.50;4.00;;;;;;;;5040004;28;12311;-83
2022/02/23 04:51:16;;;;;;;;;1.75;1.75;;;;;;;;5040626;28;11538;-82
2022/02/23 04:53:43;;;;;;;;;1.00;1.00;;;;;;;;5050210;28;11664;-83
2022/02/23 04:56:11;;;;;;;;;1.00;1.00;;;;;;;;5042453;28;11608;-84
2022/02/23 04:58:40;;;;;;;;;2.00;2.00;;;;;;;;5044819;28;11542;-83
2022/02/23 05:01:07;;;;;;;;;2.50;2.50;;;;;;;;5046930;28;11487;-83
2022/02/23 05:03:35;;;;;;;;;3.00;3.00;;;;;;;;5041126;28;11550;-82
2022/02/23 05:06:02;;;;;;;;;4.00;1.00;;;;;;;;5040807;28;11554;-81
2022/02/23 05:08:30;;;;;;;;;3.50;1.50;;;;;;;;5042136;28;11526;-81
2022/02/23 05:10:58;;;;;;;;;5.00;3.00;;;;;;;;5046066;28;11523;-82
2022/02/23 05:13:26;;;;;;;;;1.00;1.00;;;;;;;;5046314;28;11712;-82
2022/02/23 05:15:56;;;;;;;;;3.00;3.00;;;;;;;;5046137;28;11545;-82
2022/02/23 05:18:24;;;;;;;;;4.00;1.50;;;;;;;;5039858;28;11536;-82
2022/02/23 05:20:51;;;;;;;;;4.00;4.00;;;;;;;;5041902;28;11517;-82
2022/02/23 05:23:19;;;;;;;;;4.00;4.00;;;;;;;;5038937;28;12397;-80
2022/02/23 05:25:46;;;;;;;;;4.00;4.00;;;;;;;;5040970;28;11663;-83
2022/02/23 05:28:14;;;;;;;;;4.00;4.00;;;;;;;;5038733;28;12327;-79
2022/02/23 05:30:41;;;;;;;;;5.50;4.25;;;;;;;;5041059;28;11494;-81
2022/02/23 05:33:10;;;;;;;;;13.75;7.00;;;;;;;;5038434;28;11655;-80
2022/02/23 05:35:39;;;;;;;;;9.75;7.50;;;;;;;;5038206;28;11555;-81
2022/02/23 05:38:06;;;;;;;;;5.50;5.50;;;;;;;;5041135;28;11538;-82
2022/02/23 05:40:34;;;;;;;;;5.50;5.50;;;;;;;;5042851;28;11599;-82
2022/02/23 05:43:02;;;;;;;;;8.50;8.50;;;;;;;;5040375;28;11654;-80
2022/02/23 05:45:29;;;;;;;;;15.50;12.75;;;;;;;;5041058;28;11598;-81
2022/02/23 05:47:57;;;;;;;;;10.50;9.00;;;;;;;;5038116;28;11559;-80
2022/02/23 05:50:26;;;;;;;;;5.00;5.00;;;;;;;;5043443;28;11685;-86
2022/02/23 05:52:53;;;;;;;;;8.00;7.50;;;;;;;;5039189;28;11582;-81
2022/02/23 05:55:21;;;;;;;;;9.50;7.50;;;;;;;;5039592;28;11622;-81
2022/02/23 05:57:48;;;;;;;;;9.00;9.00;;;;;;;;5042446;28;11531;-82
2022/02/23 06:00:17;;;;;;;;;11.75;11.75;;;;;;;;5040449;28;11578;-81
2022/02/23 06:02:44;;;;;;;;;7.50;6.00;;;;;;;;5040179;28;11615;-81
2022/02/23 06:05:12;;;;;;;;;10.50;8.50;;;;;;;;5043619;28;11531;-81
2022/02/23 06:07:40;;;;;;;;;1.50;1.50;;;;;;;;5067787;28;11574;-81
2022/02/23 06:10:09;;;;;;;;;9.75;9.75;;;;;;;;5045716;28;11531;-81
2022/02/23 06:12:36;;;;;;;;;9.25;6.00;;;;;;;;5045083;28;11542;-81
2022/02/23 06:15:04;;;;;;;;;0.00;0.00;;;;;;;;5042092;28;11530;-81
2022/02/23 06:17:32;;;;;;;;;9.50;6.50;;;;;;;;5044709;28;11605;-80
2022/02/23 06:20:00;;;;;;;;;8.00;5.25;;;;;;;;5047096;28;11532;-82
2022/02/23 06:22:27;;;;;;;;;5.50;5.50;;;;;;;;5044841;28;11534;-80
2022/02/23 06:24:56;;;;;;;;;8.25;6.00;;;;;;;;5043152;28;11510;-81
2022/02/23 06:27:24;;;;;;;;;12.00;7.00;;;;;;;;5041838;28;11681;-85
2022/02/23 06:29:51;;;;;;;;;4.00;4.00;;;;;;;;5046709;28;11544;-83
2022/02/23 06:32:19;;;;;;;;;8.50;7.50;;;;;;;;5042834;28;11692;-78
2022/02/23 06:34:46;;;;;;;;;8.50;8.50;;;;;;;;5071458;28;11678;-89
2022/02/23 06:37:14;;;;;;;;;6.50;6.50;;;;;;;;5030665;28;11482;-94
2022/02/23 06:39:43;;;;;;;;;14.75;11.00;;;;;;;;5044718;28;11586;-89
2022/02/23 06:42:12;;;;;;;;;6.00;6.00;;;;;;;;5038676;28;11570;-91
2022/02/23 06:44:39;;;;;;;;;5.25;5.25;;;;;;;;5049455;28;11598;-87
2022/02/23 06:47:07;;;;;;;;;5.00;4.00;;;;;;;;5046086;28;11522;-88
2022/02/23 06:49:39;;;;;;;;;10.00;5.50;;;;;;;;5044845;28;11530;-92
2022/02/23 06:52:09;;;;;;;;;10.25;5.00;;;;;;;;5050355;28;11598;-90
2022/02/23 06:54:37;;;;;;;;;5.75;5.75;;;;;;;;5049689;28;11522;-90
2022/02/23 06:57:07;;;;;;;;;5.00;5.00;;;;;;;;5045703;28;11558;-86
2022/02/23 06:59:36;;;;;;;;;6.00;6.00;;;;;;;;5052267;28;11700;-89
2022/02/23 07:02:03;;;;;;;;;9.00;9.00;;;;;;;;5043926;28;11441;-90
2022/02/23 07:04:31;;;;;;;;;6.50;6.50;;;;;;;;5043797;28;11539;-93
2022/02/23 07:06:59;;;;;;;;;9.00;9.00;;;;;;;;5046350;28;11549;-88
2022/02/23 07:09:26;;;;;;;;;13.50;11.75;;;;;;;;5051042;28;11606;-91
2022/02/23 07:11:54;;;;;;;;;12.00;9.25;;;;;;;;5044078;28;11543;-93
2022/02/23 07:14:22;;;;;;;;;14.00;14.00;;;;;;;;5054223;28;11852;-91
2022/02/23 07:16:50;;;;;;;;;6.00;6.00;;;;;;;;5088564;28;12244;-88
2022/02/23 07:19:20;;;;;;;;;13.25;9.00;;;;;;;;5058341;28;11633;-90
2022/02/23 07:21:48;;;;;;;;;9.00;9.00;;;;;;;;5063970;28;11577;-88
2022/02/23 07:24:15;;;;;;;;;8.00;8.00;;;;;;;;5056515;28;11669;-87
2022/02/23 07:26:43;;;;;;;;;9.00;9.00;;;;;;;;5049607;28;11541;-88
2022/02/23 07:29:11;;;;;;;;;8.75;8.00;;;;;;;;5044859;28;11545;-89
2022/02/23 07:31:40;;;;;;;;;6.00;6.00;;;;;;;;5049418;28;11537;-88
2022/02/23 07:34:09;;;;;;;;;9.50;8.25;;;;;;;;5050626;28;11561;-88
2022/02/23 07:36:36;;;;;;;;;7.50;6.00;;;;;;;;5043488;28;11537;-91
2022/02/23 07:39:04;;;;;;;;;8.50;8.50;;;;;;;;5048095;28;11543;-88
2022/02/23 07:41:31;;;;;;;;;10.50;8.50;;;;;;;;5048841;28;11554;-89
2022/02/23 07:43:59;;;;;;;;;12.25;12.25;;;;;;;;5048852;28;11548;-91
2022/02/23 07:46:26;;;;;;;;;12.75;11.00;;;;;;;;5049201;28;11570;-91
2022/02/23 07:48:58;;;;;;;;;9.50;9.00;;;;;;;;5035428;28;11608;-85
2022/02/23 07:51:27;;;;;;;;;16.00;12.25;;;;;;;;5069719;28;11588;-90
2022/02/23 07:53:55;;;;;;;;;16.50;16.25;;;;;;;;5043106;28;11578;-90
2022/02/23 07:56:23;;;;;;;;;15.75;14.00;;;;;;;;5082077;28;12207;-93
2022/02/23 07:58:50;;;;;;;;;18.00;16.00;;;;;;;;5045399;28;11565;-92
2022/02/23 08:01:31;;;;;;;;;16.50;15.75;;;;;;;;5049685;28;11691;-92
2022/02/23 08:03:58;;;;;;;;;2.50;2.50;;;;;;;;5043308;28;11648;-91
2022/02/23 08:06:27;;;;;;;;;8.25;8.25;;;;;;;;5046512;28;11632;-86
2022/02/23 08:08:56;;;;;;;;;17.00;16.00;;;;;;;;5047038;28;11533;-91
2022/02/23 08:11:23;;;;;;;;;16.00;13.00;;;;;;;;5044607;28;11593;-82
2022/02/23 08:13:58;;;;;;;;;15.25;13.00;;;;;;;;5047194;28;11583;-75
2022/02/23 08:21:58;;;;;;;;;3.50;3.50;;;;;;;;5047203;28;11582;-82
2022/02/23 08:24:27;;;;;;;;;11.75;11.75;;;;;;;;5049285;28;11509;-76
2022/02/23 08:26:54;;;;;;;;;16.50;14.75;;;;;;;;5041864;28;11608;-79
2022/02/23 08:29:22;;;;;;;;;18.00;17.25;;;;;;;;5045415;28;11602;-76
2022/02/23 08:31:50;;;;;;;;;12.25;9.00;;;;;;;;5042577;28;11544;-76
2022/02/23 08:34:18;;;;;;;;;9.00;7.50;;;;;;;;5050247;28;11565;-79
2022/02/23 08:36:45;;;;;;;;;17.75;12.75;;;;;;;;5045689;28;11543;-77
2022/02/23 08:39:15;;;;;;;;;12.00;10.00;;;;;;;;5053583;28;11544;-79
2022/02/23 08:41:42;;;;;;;;;10.25;8.50;;;;;;;;5041547;28;11547;-78
2022/02/23 08:44:09;;;;;;;;;18.25;11.00;;;;;;;;5040221;28;12353;-81
2022/02/23 08:46:37;;;;;;;;;6.50;4.50;;;;;;;;5037307;28;11577;-76
2022/02/23 08:49:07;;;;;;;;;12.25;10.00;;;;;;;;5045754;28;11649;-84
2022/02/23 08:51:35;;;;;;;;;14.50;11.75;;;;;;;;5043762;28;11525;-79
2022/02/23 08:54:03;;;;;;;;;17.00;15.75;;;;;;;;5036861;28;11596;-84
2022/02/23 08:56:32;;;;;;;;;20.75;18.25;;;;;;;;5046515;28;11571;-77
2022/02/23 08:59:00;;;;;;;;;10.00;10.00;;;;;;;;5043116;28;11682;-78
2022/02/23 09:01:29;;;;;;;;;12.75;10.50;;;;;;;;5049257;28;11627;-79
2022/02/23 09:03:57;;;;;;;;;12.50;12.50;;;;;;;;5043552;28;11545;-81
2022/02/23 09:06:24;;;;;;;;;24.25;18.00;;;;;;;;5042606;28;12353;-76
2022/02/23 09:08:51;;;;;;;;;10.50;9.50;;;;;;;;5071352;28;11577;-76
2022/02/23 09:11:22;;;;;;;;;16.75;12.50;;;;;;;;5043418;28;12356;-75
2022/02/23 09:13:51;;;;;;;;;16.00;15.25;;;;;;;;5041278;28;11687;-76
2022/02/23 09:16:19;;;;;;;;;13.00;11.50;;;;;;;;5040484;28;11598;-75
2022/02/23 09:18:46;;;;;;;;;12.50;12.00;;;;;;;;5041353;28;11652;-76
2022/02/23 09:21:13;;;;;;;;;27.25;21.50;;;;;;;;5042641;28;11531;-74
2022/02/23 09:23:41;;;;;;;;;16.00;13.50;;;;;;;;5070300;28;11623;-76
2022/02/23 09:26:08;;;;;;;;;11.50;9.25;;;;;;;;5051208;28;11677;-75
2022/02/23 09:28:37;;;;;;;;;15.25;13.00;;;;;;;;5042376;28;11622;-77
2022/02/23 09:31:07;;;;;;;;;15.25;13.25;;;;;;;;5041074;28;11435;-76
2022/02/23 09:33:35;;;;;;;;;24.75;21.00;;;;;;;;5050255;28;11564;-77
2022/02/23 09:36:03;;;;;;;;;22.50;20.00;;;;;;;;5042631;28;12347;-79
2022/02/23 09:38:30;;;;;;;;;19.75;19.75;;;;;;;;5043949;28;11535;-79
2022/02/23 09:41:00;;;;;;;;;19.25;16.25;;;;;;;;5043777;28;11522;-77
2022/02/23 09:43:28;;;;;;;;;18.75;15.00;;;;;;;;5044431;28;11535;-76
2022/02/23 09:45:56;;;;;;;;;13.25;9.50;;;;;;;;5048222;28;11645;-78
2022/02/23 09:48:28;;;;;;;;;11.00;8.75;;;;;;;;5046772;28;11494;-76
2022/02/23 09:50:56;;;;;;;;;15.75;13.00;;;;;;;;5048407;28;11624;-76
2022/02/23 09:53:24;;;;;;;;;12.50;11.50;;;;;;;;5046012;28;11517;-77
2022/02/23 09:55:56;;;;;;;;;13.00;11.75;;;;;;;;5045501;28;11508;-77
2022/02/23 09:58:24;;;;;;;;;13.00;13.00;;;;;;;;5051915;28;12247;-76
2022/02/23 10:00:53;;;;;;;;;11.50;11.50;;;;;;;;5046827;28;11467;-78
2022/02/23 10:03:20;;;;;;;;;11.75;11.75;;;;;;;;5049388;28;11578;-76
2022/02/23 10:05:49;;;;;;;;;9.50;9.50;;;;;;;;5047443;28;11520;-77
2022/02/23 10:08:17;;;;;;;;;10.75;9.75;;;;;;;;5046810;28;11519;-75
2022/02/23 10:10:47;;;;;;;;;8.00;8.00;;;;;;;;5049556;28;11624;-78
2022/02/23 10:13:19;;;;;;;;;10.00;9.00;;;;;;;;5039814;28;11455;-76
2022/02/23 10:15:48;;;;;;;;;10.00;8.50;;;;;;;;5044810;28;11504;-74
2022/02/23 10:18:18;;;;;;;;;9.75;9.75;;;;;;;;5042203;28;11454;-76
2022/02/23 10:20:46;;;;;;;;;10.75;9.25;;;;;;;;5041912;28;11620;-79
2022/02/23 10:23:18;;;;;;;;;10.50;10.50;;;;;;;;5042987;28;11497;-76
2022/02/23 10:25:51;;;;;;;;;6.00;6.00;;;;;;;;5045589;28;11495;-76
2022/02/23 10:28:22;;;;;;;;;11.75;11.75;;;;;;;;5048615;28;11491;-75
2022/02/23 10:30:51;;;;;;;;;11.75;10.50;;;;;;;;5042121;28;12175;-78
2022/02/23 10:33:20;;;;;;;;;15.25;9.75;;;;;;;;5042861;28;11589;-75
2022/02/23 10:35:52;;;;;;;;;13.00;10.00;;;;;;;;5053330;28;11601;-77
2022/02/23 10:38:27;;;;;;;;;10.75;8.50;;;;;;;;5048912;28;11526;-76
2022/02/23 10:40:55;;;;;;;;;14.00;13.00;;;;;;;;5076679;28;11477;-77
2022/02/23 10:43:27;;;;;;;;;14.25;9.75;;;;;;;;5042650;28;11525;-76
2022/02/23 10:46:02;;;;;;;;;16.75;13.00;;;;;;;;5044205;28;11570;-78
2022/02/23 10:48:31;;;;;;;;;10.75;8.50;;;;;;;;5048103;28;11648;-79
2022/02/23 10:50:59;;;;;;;;;13.00;11.00;;;;;;;;5040885;28;12447;-77
2022/02/23 10:53:29;;;;;;;;;13.00;13.00;;;;;;;;5046310;28;11538;-77
2022/02/23 10:56:21;;;;;;;;;14.75;10.75;;;;;;;;5052805;28;11097;-77
2022/02/23 10:58:49;;;;;;;;;13.50;13.00;;;;;;;;5072408;28;12020;-77
2022/02/23 11:01:17;;;;;;;;;22.25;14.75;;;;;;;;5046223;28;11588;-80
2022/02/23 11:03:44;;;;;;;;;20.75;18.25;;;;;;;;5045456;28;11510;-76
2022/02/23 11:06:12;;;;;;;;;15.25;15.25;;;;;;;;5046798;28;11493;-77
2022/02/23 11:08:41;;;;;;;;;20.75;16.50;;;;;;;;5049349;28;11540;-79
2022/02/23 11:11:09;;;;;;;;;24.25;20.50;;;;;;;;5042263;28;11614;-76
2022/02/23 11:13:36;;;;;;;;;19.00;18.00;;;;;;;;5047838;28;11556;-80
2022/02/23 11:16:05;;;;;;;;;18.50;18.50;;;;;;;;5044218;28;11665;-77
2022/02/23 11:18:32;;;;;;;;;23.25;21.00;;;;;;;;5051439;28;11656;-77
2022/02/23 11:21:00;;;;;;;;;20.50;18.25;;;;;;;;5037487;28;11568;-80
2022/02/23 11:23:28;;;;;;;;;23.00;22.75;;;;;;;;5047672;28;11588;-78
2022/02/23 11:25:57;;;;;;;;;30.00;25.50;;;;;;;;5046301;28;11537;-79
2022/02/23 11:28:38;;;;;;;;;31.00;25.50;;;;;;;;5050969;28;11532;-80
2022/02/23 11:31:07;;;;;;;;;28.25;24.00;;;;;;;;5041127;28;11569;-79
2022/02/23 11:33:54;;;;;;;;;35.75;30.25;;;;;;;;5047884;28;11554;-78
2022/02/23 11:36:24;;;;;;;;;41.00;29.00;;;;;;;;5052674;28;11533;-75
2022/02/23 11:38:52;;;;;;;;;30.50;24.25;;;;;;;;5049689;28;11541;-75
2022/02/23 11:41:25;;;;;;;;;29.25;27.50;;;;;;;;5043357;28;11537;-75
2022/02/23 11:43:58;;;;;;;;;32.50;25.75;;;;;;;;5049510;28;11559;-76
2022/02/23 11:46:26;;;;;;;;;37.00;29.25;;;;;;;;5044993;28;11514;-75
2022/02/23 11:48:56;;;;;;;;;31.25;28.25;;;;;;;;5043932;28;12585;-76
2022/02/23 11:51:30;;;;;;;;;26.00;23.75;;;;;;;;5043803;28;11660;-77
2022/02/23 11:53:58;;;;;;;;;29.75;29.75;;;;;;;;5037580;28;11325;-76
2022/02/23 11:56:41;;;;;;;;;26.75;22.75;;;;;;;;5045474;28;11241;-78
2022/02/23 11:59:09;;;;;;;;;21.00;20.25;;;;;;;;5040861;28;11276;-78
2022/02/23 12:01:47;;;;;;;;;27.25;26.75;;;;;;;;5040363;28;11087;-79
2022/02/23 12:04:17;;;;;;;;;30.00;28.25;;;;;;;;5038614;28;11319;-79
2022/02/23 12:07:07;;;;;;;;;31.00;25.00;;;;;;;;5041018;28;10981;-80
2022/02/23 12:10:07;;;;;;;;;28.00;22.25;;;;;;;;5036237;28;11062;-75
2022/02/23 12:12:37;;;;;;;;;29.00;25.25;;;;;;;;5046560;28;11000;-77
2022/02/23 12:15:06;;;;;;;;;35.00;31.50;;;;;;;;5043800;28;10957;-74
2022/02/23 12:17:50;;;;;;;;;29.50;26.25;;;;;;;;5040065;28;10935;-78
2022/02/23 12:20:54;;;;;;;;;22.50;22.50;;;;;;;;5039133;28;10895;-78
2022/02/23 12:23:35;;;;;;;;;29.25;26.25;;;;;;;;5039159;28;10612;-78
2022/02/23 12:26:15;;;;;;;;;34.25;30.25;;;;;;;;5044080;28;10687;-79
2022/02/23 12:28:47;;;;;;;;;41.00;30.50;;;;;;;;5038658;28;10398;-78
2022/02/23 12:31:18;;;;;;;;;25.00;23.00;;;;;;;;5042852;28;10098;-75
2022/02/23 12:33:47;;;;;;;;;26.50;25.00;;;;;;;;5039159;28;10008;-83
2022/02/23 12:36:24;;;;;;;;;25.75;22.50;;;;;;;;5041380;28;9814;-84
2022/02/23 12:38:51;;;;;;;;;21.75;21.00;;;;;;;;5036760;28;9903;-77
2022/02/23 12:41:21;;;;;;;;;33.25;28.75;;;;;;;;5036806;28;9855;-77
2022/02/23 12:43:58;;;;;;;;;31.25;27.00;;;;;;;;5040023;28;9893;-75
2022/02/23 12:46:26;;;;;;;;;30.25;28.75;;;;;;;;5042403;28;9724;-79
2022/02/23 12:49:00;;;;;;;;;34.00;32.50;;;;;;;;5039358;28;10601;-79
2022/02/23 12:51:30;;;;;;;;;29.25;25.25;;;;;;;;5040045;28;10509;-79
2022/02/23 12:54:02;;;;;;;;;34.00;29.33;;;;;;;;5039674;28;9558;-77
2022/02/23 12:56:32;;;;;;;;;24.67;24.33;;;;;;;;5039845;28;9431;-73
2022/02/23 12:59:02;;;;;;;;;28.50;26.50;;;;;;;;5041067;28;9501;-78
2022/02/23 13:01:31;;;;;;;;;30.25;28.75;;;;;;;;5039424;28;9694;-79
2022/02/23 13:03:59;;;;;;;;;32.75;29.25;;;;;;;;5035436;28;9740;-77
2022/02/23 13:06:28;;;;;;;;;31.75;27.75;;;;;;;;5040305;28;9727;-77
2022/02/23 13:08:56;;;;;;;;;35.00;31.75;;;;;;;;5041483;28;9900;-77
2022/02/23 13:11:28;;;;;;;;;34.25;24.75;;;;;;;;5039794;28;9811;-76
2022/02/23 13:14:02;;;;;;;;;30.00;25.75;;;;;;;;5042792;28;9765;-76
2022/02/23 13:16:30;;;;;;;;;24.25;22.25;;;;;;;;5043411;28;9817;-79
2022/02/23 13:19:02;;;;;;;;;20.25;19.75;;;;;;;;5046573;28;10029;-79
2022/02/23 13:21:39;;;;;;;;;23.50;19.25;;;;;;;;5043502;28;9699;-84
2022/02/23 13:24:08;;;;;;;;;31.50;24.75;;;;;;;;5042585;28;9915;-78
2022/02/23 13:26:38;;;;;;;;;28.25;22.50;;;;;;;;5044766;28;10067;-79
2022/02/23 13:29:09;;;;;;;;;31.75;31.50;;;;;;;;5043993;28;10128;-81
2022/02/23 13:31:40;;;;;;;;;26.00;23.00;;;;;;;;5037257;28;9739;-77
2022/02/23 13:34:32;;;;;;;;;29.25;26.75;;;;;;;;5040364;28;10622;-74
2022/02/23 13:37:02;;;;;;;;;32.00;28.00;;;;;;;;5041617;28;9843;-77
2022/02/23 13:39:32;;;;;;;;;26.50;26.50;;;;;;;;5043950;28;9882;-75
2022/02/23 13:42:04;;;;;;;;;32.50;25.75;;;;;;;;5041178;28;9633;-75
2022/02/23 13:44:35;;;;;;;;;23.00;19.50;;;;;;;;5047799;28;9853;-76
2022/02/23 13:47:05;;;;;;;;;26.50;24.75;;;;;;;;5046271;28;9711;-75
2022/02/23 13:49:34;;;;;;;;;31.50;26.25;;;;;;;;5044951;28;9586;-74
2022/02/23 13:52:04;;;;;;;;;23.00;23.00;;;;;;;;5048941;28;9797;-74
2022/02/23 13:54:33;;;;;;;;;24.00;24.00;;;;;;;;5044434;28;9713;-76
2022/02/23 13:57:00;;;;;;;;;24.25;20.00;;;;;;;;5042447;28;9487;-77
2022/02/23 13:59:27;;;;;;;;;25.00;23.25;;;;;;;;5045079;28;9559;-76
2022/02/23 14:02:06;;;;;;;;;23.00;21.50;;;;;;;;5043570;28;9433;-77
2022/02/23 14:04:45;;;;;;;;;28.25;21.25;;;;;;;;5038889;28;10295;-74
2022/02/23 14:07:21;;;;;;;;;25.25;22.50;;;;;;;;5041034;28;9586;-75
2022/02/23 14:09:49;;;;;;;;;26.50;25.50;;;;;;;;5044002;28;9718;-77
2022/02/23 14:12:16;;;;;;;;;28.75;25.50;;;;;;;;5030219;28;9802;-75
2022/02/23 14:14:46;;;;;;;;;20.75;20.75;;;;;;;;5047593;28;9796;-80
2022/02/23 14:17:20;;;;;;;;;20.50;15.50;;;;;;;;5041998;28;9867;-75
2022/02/23 14:19:49;;;;;;;;;24.25;20.25;;;;;;;;5042368;28;9776;-78
2022/02/23 14:22:21;;;;;;;;;23.25;16.25;;;;;;;;5045537;28;9957;-76
2022/02/23 14:25:00;;;;;;;;;22.75;19.25;;;;;;;;5034289;28;9728;-78
2022/02/23 14:27:30;;;;;;;;;20.50;17.50;;;;;;;;5043493;28;9690;-77
2022/02/23 14:29:58;;;;;;;;;23.50;21.00;;;;;;;;5041035;28;9728;-76
2022/02/23 14:32:29;;;;;;;;;19.50;18.75;;;;;;;;5049869;28;9701;-77
2022/02/23 14:34:59;;;;;;;;;24.50;21.00;;;;;;;;5033643;28;9487;-77
2022/02/23 14:37:28;;;;;;;;;16.25;16.25;;;;;;;;5040354;28;9493;-78
2022/02/23 14:39:56;;;;;;;;;15.75;15.75;;;;;;;;5033691;28;9517;-75
2022/02/23 14:42:24;;;;;;;;;14.33;11.67;;;;;;;;5043554;28;10262;-76
2022/02/23 14:44:52;;;;;;;;;19.33;19.33;;;;;;;;5046342;28;9478;-79
2022/02/23 14:47:19;;;;;;;;;16.00;15.50;;;;;;;;5046296;28;10269;-73
2022/02/23 14:49:48;;;;;;;;;18.00;14.00;;;;;;;;5038489;28;9974;-78